Kezdőlap
METAR-TAF:

METAR-TAF

Repülőterek :

Zára, Horvátország

Zadar repülőtér

földrajzi szélesség: 44-06N, földrajzi hosszúság: 015-21E, magasság: 82 m

Jelenlegi meteorológiai megfigyelések

A jelentés 22 perccel ezelõtt készült, 17:30 UTC
Kelet-északkeleti szél 11 kt, északi és kelet-délkeleti között változik
Hőmérséklet 0°C
Páratartalom 40%
Légköri nyomás 1010 hPa
Látótávolság 10 km, vagy több
Borult 7000 lábon

METAR: LDZD 251730Z 06011KT 360V110 9999 OVC070 M00/M12 Q1010 NOSIG

Idő: 18:52 (17:52 UTC)

Előrejelzés

A jelentés 27 perccel ezelõtt készült, 17:25 UTC
Az előrejelzés 25-én 18 óra UTC és 26-én 18 óra UTC között érvényes
Kelet-északkeleti szél 15 kt
Látótávolság 10 km, vagy több
Szakadozott felhőzet 7000 lábon
25-én 18 óra UTC és 26-én 18 óra UTC között ideiglenes
Kelet-északkeleti szél 15 kt széllökések: 25 kt

TAF: LDZD 251725Z 2518/2618 06015KT 9999 BKN070 TXM01/2518Z TNM05/2605Z TEMPO 2518/2618 06015G25KT

Meteorológiai megfigyelések és előrejelzések több, mint 4000 repülőtéren (METAR és TAF jelentéseket).

A térképen piros és sárga pontok jelzik az elérhető meteorológiai állomásokat.

Mozgassa az egeret a pont fölött, hogy megjelenjen az állomás neve.

Azután kattintson az időjárási megfigyelések és előrejelzések megtekintéséhez.

A térkép megváltoztatása: kattintson a fekete keresztel jelölt zöld gombra ráközelítéshez, a vonallal jelölt zöld gombra távolításhoz, vagy a zöld nyilakra a szomszédos térképek eléréséhez.


METAR-TAF: